PWSweather.com
Personal Weather Stations
Station Observations
KMOHERMA2
Stony Hill, Hermann, MO 65041

Stony HillHermann, MO 65041

Lat: 38.527, Lon: -91.414

Elevation: 896

Station Type: Davis Vantage Pro 2

High Low Average
Temperature 39.3°F4.1°C 26.2°F-3.2°C 30.5°F-0.8°C
Dew Point 38.3°F3.5°C 16.2°F-8.8°C 25.0°F-3.9°C
Winds 24.0 mph 38.6 kmh Calm Calm 4.0 mph WSW6.4 kmh WSW
Wind Gusts 33.0 mph53.1 kmh -- 2.0 mph3.2 kmh
Humidity 96% 55% 81%
Pressure 30.16 in1021.3 mb 29.65 in1004.1 mb -
Precipitation 0.01 in0.3 mm - -
Hour Temp Dew Point Humidity Winds Wind Gusts Pressure Precip Precip Rate Daily Precip Total
12:00 AM 32.6°F0.3°C 31.3°F-0.4°C 95% Calm Calm -- 29.69 in1005.4 mb 0.01 in0.3 mm 0.00 in0.0 mm 0.29 in7.4 mm
12:05 AM 32.6°F0.3°C 31.3°F-0.4°C 95% Calm Calm -- 29.69 in1005.4 mb 0.00 in0.0 mm 0.00 in0.0 mm 0.29 in7.4 mm
12:10 AM 32.7°F0.4°C 31.5°F-0.3°C 95% Calm Calm -- 29.69 in1005.4 mb 0.00 in0.0 mm 0.00 in0.0 mm 0.29 in7.4 mm
12:15 AM 32.6°F0.3°C 31.3°F-0.4°C 95% Calm Calm -- 29.68 in1005.1 mb 0.00 in0.0 mm 0.00 in0.0 mm 0.29 in7.4 mm
12:20 AM 32.6°F0.3°C 31.3°F-0.4°C 95% Calm Calm -- 29.69 in1005.4 mb 0.00 in0.0 mm 0.00 in0.0 mm 0.29 in7.4 mm
12:25 AM 32.6°F0.3°C 31.3°F-0.4°C 95% Calm Calm -- 29.68 in1005.1 mb 0.00 in0.0 mm 0.00 in0.0 mm 0.29 in7.4 mm
12:30 AM 32.6°F0.3°C 31.3°F-0.4°C 95% Calm Calm -- 29.68 in1005.1 mb 0.00 in0.0 mm 0.00 in0.0 mm 0.29 in7.4 mm
12:35 AM 32.7°F0.4°C 31.5°F-0.3°C 95% Calm Calm -- 29.68 in1005.1 mb 0.00 in0.0 mm 0.00 in0.0 mm 0.29 in7.4 mm
12:40 AM 32.7°F0.4°C 31.5°F-0.3°C 95% Calm Calm -- 29.68 in1005.1 mb 0.00 in0.0 mm 0.00 in0.0 mm 0.29 in7.4 mm
12:45 AM 32.7°F0.4°C 31.5°F-0.3°C 95% Calm Calm -- 29.68 in1005.1 mb 0.00 in0.0 mm 0.00 in0.0 mm 0.29 in7.4 mm
12:50 AM 32.7°F0.4°C 31.5°F-0.3°C 95% Calm Calm -- 29.67 in1004.7 mb 0.00 in0.0 mm 0.00 in0.0 mm 0.29 in7.4 mm
12:55 AM 32.7°F0.4°C 31.5°F-0.3°C 95% Calm Calm -- 29.67 in1004.7 mb 0.00 in0.0 mm 0.00 in0.0 mm 0.29 in7.4 mm
01:00 AM 32.8°F0.4°C 31.5°F-0.3°C 95% Calm Calm -- 29.66 in1004.4 mb 0.00 in0.0 mm 0.00 in0.0 mm 0.01 in0.3 mm
01:05 AM 32.8°F0.4°C 31.5°F-0.3°C 95% Calm Calm -- 29.66 in1004.4 mb 0.00 in0.0 mm 0.00 in0.0 mm 0.01 in0.3 mm
01:10 AM 32.9°F0.5°C 31.6°F-0.2°C 95% Calm Calm -- 29.66 in1004.4 mb 0.00 in0.0 mm 0.00 in0.0 mm 0.01 in0.3 mm
01:15 AM 32.9°F0.5°C 31.6°F-0.2°C 95% Calm Calm -- 29.66 in1004.4 mb 0.00 in0.0 mm 0.00 in0.0 mm 0.01 in0.3 mm
01:20 AM 33.0°F0.6°C 31.8°F-0.1°C 95% Calm Calm -- 29.66 in1004.4 mb 0.00 in0.0 mm 0.00 in0.0 mm 0.01 in0.3 mm
01:25 AM 33.0°F0.6°C 31.8°F-0.1°C 95% Calm Calm -- 29.66 in1004.4 mb 0.00 in0.0 mm 0.00 in0.0 mm 0.01 in0.3 mm
01:30 AM 32.9°F0.5°C 31.6°F-0.2°C 95% Calm Calm -- 29.66 in1004.4 mb 0.00 in0.0 mm 0.00 in0.0 mm 0.01 in0.3 mm
01:35 AM 32.9°F0.5°C 31.6°F-0.2°C 95% Calm Calm -- 29.66 in1004.4 mb 0.00 in0.0 mm 0.00 in0.0 mm 0.01 in0.3 mm
01:40 AM 33.0°F0.6°C 31.8°F-0.1°C 95% Calm Calm -- 29.66 in1004.4 mb 0.00 in0.0 mm 0.00 in0.0 mm 0.01 in0.3 mm
01:45 AM 33.1°F0.6°C 31.8°F-0.1°C 95% Calm Calm -- 29.66 in1004.4 mb 0.00 in0.0 mm 0.00 in0.0 mm 0.01 in0.3 mm
01:50 AM 33.3°F0.7°C 32.0°F0.0°C 95% Calm Calm -- 29.66 in1004.4 mb 0.00 in0.0 mm 0.00 in0.0 mm 0.01 in0.3 mm
01:55 AM 33.5°F0.8°C 32.2°F0.1°C 95% Calm Calm -- 29.66 in1004.4 mb 0.00 in0.0 mm 0.00 in0.0 mm 0.01 in0.3 mm
02:00 AM 33.6°F0.9°C 32.4°F0.2°C 95% Calm Calm -- 29.66 in1004.4 mb 0.01 in0.3 mm 0.01 in0.3 mm 0.01 in0.3 mm
02:05 AM 33.6°F0.9°C 32.4°F0.2°C 95% Calm Calm -- 29.65 in1004.1 mb 0.01 in0.3 mm 0.00 in0.0 mm 0.01 in0.3 mm
02:10 AM 33.8°F1.0°C 32.5°F0.3°C 95% Calm Calm -- 29.65 in1004.1 mb 0.01 in0.3 mm 0.00 in0.0 mm 0.01 in0.3 mm
02:15 AM 33.9°F1.1°C 32.9°F0.5°C 96% Calm Calm -- 29.65 in1004.1 mb 0.01 in0.3 mm 0.00 in0.0 mm 0.01 in0.3 mm
02:20 AM 34.1°F1.2°C 32.9°F0.5°C 95% Calm Calm -- 29.65 in1004.1 mb 0.01 in0.3 mm 0.00 in0.0 mm 0.01 in0.3 mm
02:25 AM 34.4°F1.3°C 33.1°F0.6°C 95% Calm Calm -- 29.65 in1004.1 mb 0.01 in0.3 mm 0.00 in0.0 mm 0.01 in0.3 mm
02:30 AM 34.9°F1.6°C 33.6°F0.9°C 95% Calm Calm -- 29.65 in1004.1 mb 0.01 in0.3 mm 0.00 in0.0 mm 0.01 in0.3 mm
02:35 AM 35.6°F2.0°C 34.3°F1.3°C 95% Calm Calm -- 29.65 in1004.1 mb 0.01 in0.3 mm 0.00 in0.0 mm 0.01 in0.3 mm
02:40 AM 36.3°F2.4°C 35.2°F1.8°C 96% Calm Calm -- 29.65 in1004.1 mb 0.01 in0.3 mm 0.00 in0.0 mm 0.01 in0.3 mm
02:45 AM 37.0°F2.8°C 36.0°F2.2°C 96% Calm Calm -- 29.66 in1004.4 mb 0.01 in0.3 mm 0.00 in0.0 mm 0.01 in0.3 mm
02:50 AM 37.8°F3.2°C 36.7°F2.6°C 96% Calm Calm -- 29.65 in1004.1 mb 0.01 in0.3 mm 0.00 in0.0 mm 0.01 in0.3 mm
02:55 AM 38.5°F3.6°C 37.4°F3.0°C 96% Calm Calm -- 29.65 in1004.1 mb 0.01 in0.3 mm 0.00 in0.0 mm 0.01 in0.3 mm
03:00 AM 39.0°F3.9°C 37.9°F3.3°C 96% Calm Calm -- 29.65 in1004.1 mb 0.00 in0.0 mm 0.00 in0.0 mm 0.01 in0.3 mm
03:05 AM 39.3°F4.1°C 38.3°F3.5°C 96% Calm Calm -- 29.65 in1004.1 mb 0.00 in0.0 mm 0.00 in0.0 mm 0.01 in0.3 mm
03:10 AM 39.3°F4.1°C 38.3°F3.5°C 96% Calm Calm -- 29.66 in1004.4 mb 0.00 in0.0 mm 0.00 in0.0 mm 0.01 in0.3 mm
03:15 AM 39.3°F4.1°C 38.3°F3.5°C 96% Calm Calm -- 29.66 in1004.4 mb 0.00 in0.0 mm 0.00 in0.0 mm 0.01 in0.3 mm
03:20 AM 39.2°F4.0°C 38.1°F3.4°C 96% Calm Calm -- 29.66 in1004.4 mb 0.00 in0.0 mm 0.00 in0.0 mm 0.01 in0.3 mm
03:25 AM 39.0°F3.9°C 37.9°F3.3°C 96% Calm Calm -- 29.65 in1004.1 mb 0.00 in0.0 mm 0.00 in0.0 mm 0.01 in0.3 mm
03:30 AM 38.7°F3.7°C 37.6°F3.1°C 96% Calm Calm -- 29.65 in1004.1 mb 0.00 in0.0 mm 0.00 in0.0 mm 0.01 in0.3 mm
03:35 AM 38.5°F3.6°C 37.4°F3.0°C 96% Calm Calm -- 29.66 in1004.4 mb 0.00 in0.0 mm 0.00 in0.0 mm 0.01 in0.3 mm
03:40 AM 38.1°F3.4°C 37.0°F2.8°C 96% Calm Calm -- 29.66 in1004.4 mb 0.00 in0.0 mm 0.00 in0.0 mm 0.01 in0.3 mm
03:45 AM 37.8°F3.2°C 36.7°F2.6°C 96% Calm Calm -- 29.66 in1004.4 mb 0.00 in0.0 mm 0.00 in0.0 mm 0.01 in0.3 mm
03:50 AM 37.6°F3.1°C 36.5°F2.5°C 96% Calm Calm -- 29.67 in1004.7 mb 0.00 in0.0 mm 0.00 in0.0 mm 0.01 in0.3 mm
03:55 AM 37.4°F3.0°C 36.3°F2.4°C 96% Calm Calm -- 29.67 in1004.7 mb 0.00 in0.0 mm 0.00 in0.0 mm 0.01 in0.3 mm
04:00 AM 37.2°F2.9°C 36.0°F2.2°C 95% Calm Calm -- 29.67 in1004.7 mb 0.00 in0.0 mm 0.00 in0.0 mm 0.01 in0.3 mm
04:05 AM 37.0°F2.8°C 36.0°F2.2°C 96% Calm Calm -- 29.68 in1005.1 mb 0.00 in0.0 mm 0.00 in0.0 mm 0.01 in0.3 mm
04:10 AM 36.7°F2.6°C 35.4°F1.9°C 95% Calm Calm -- 29.68 in1005.1 mb 0.00 in0.0 mm 0.00 in0.0 mm 0.01 in0.3 mm
04:15 AM 36.4°F2.4°C 35.1°F1.7°C 95% Calm Calm -- 29.68 in1005.1 mb 0.00 in0.0 mm 0.00 in0.0 mm 0.01 in0.3 mm
04:20 AM 35.8°F2.1°C 34.7°F1.5°C 96% Calm Calm -- 29.68 in1005.1 mb 0.00 in0.0 mm 0.00 in0.0 mm 0.01 in0.3 mm
04:25 AM 35.1°F1.7°C 34.0°F1.1°C 96% Calm Calm -- 29.69 in1005.4 mb 0.00 in0.0 mm 0.00 in0.0 mm 0.01 in0.3 mm
04:30 AM 34.5°F1.4°C 33.4°F0.8°C 96% Calm Calm -- 29.69 in1005.4 mb 0.00 in0.0 mm 0.00 in0.0 mm 0.01 in0.3 mm
04:35 AM 34.0°F1.1°C 32.9°F0.5°C 96% Calm Calm -- 29.68 in1005.1 mb 0.00 in0.0 mm 0.00 in0.0 mm 0.01 in0.3 mm
04:40 AM 33.6°F0.9°C 32.4°F0.2°C 95% Calm Calm -- 29.68 in1005.1 mb 0.00 in0.0 mm 0.00 in0.0 mm 0.01 in0.3 mm
04:45 AM 33.5°F0.8°C 32.2°F0.1°C 95% Calm Calm -- 29.69 in1005.4 mb 0.00 in0.0 mm 0.00 in0.0 mm 0.01 in0.3 mm
04:50 AM 33.2°F0.7°C 32.0°F0.0°C 95% Calm Calm -- 29.68 in1005.1 mb 0.00 in0.0 mm 0.00 in0.0 mm 0.01 in0.3 mm
04:55 AM 33.0°F0.6°C 31.8°F-0.1°C 95% Calm Calm -- 29.69 in1005.4 mb 0.00 in0.0 mm 0.00 in0.0 mm 0.01 in0.3 mm
05:00 AM 32.8°F0.4°C 31.5°F-0.3°C 95% Calm Calm -- 29.69 in1005.4 mb 0.00 in0.0 mm 0.00 in0.0 mm 0.01 in0.3 mm
05:05 AM 32.5°F0.3°C 31.3°F-0.4°C 95% Calm Calm -- 29.68 in1005.1 mb 0.00 in0.0 mm 0.00 in0.0 mm 0.01 in0.3 mm
05:10 AM 32.4°F0.2°C 31.1°F-0.5°C 95% Calm Calm -- 29.69 in1005.4 mb 0.00 in0.0 mm 0.00 in0.0 mm 0.01 in0.3 mm
05:15 AM 32.2°F0.1°C 30.9°F-0.6°C 95% Calm Calm -- 29.70 in1005.8 mb 0.00 in0.0 mm 0.00 in0.0 mm 0.01 in0.3 mm
05:20 AM 32.2°F0.1°C 30.9°F-0.6°C 95% Calm Calm -- 29.70 in1005.8 mb 0.00 in0.0 mm 0.00 in0.0 mm 0.01 in0.3 mm
05:25 AM 32.0°F0.0°C 30.7°F-0.7°C 95% Calm Calm -- 29.70 in1005.8 mb 0.00 in0.0 mm 0.00 in0.0 mm 0.01 in0.3 mm
05:30 AM 31.9°F-0.1°C 30.6°F-0.8°C 95% Calm Calm -- 29.70 in1005.8 mb 0.00 in0.0 mm 0.00 in0.0 mm 0.01 in0.3 mm
05:35 AM 31.7°F-0.2°C 30.4°F-0.9°C 95% Calm Calm -- 29.70 in1005.8 mb 0.00 in0.0 mm 0.00 in0.0 mm 0.01 in0.3 mm
05:40 AM 31.5°F-0.3°C 30.2°F-1.0°C 95% Calm Calm -- 29.71 in1006.1 mb 0.00 in0.0 mm 0.00 in0.0 mm 0.01 in0.3 mm
05:45 AM 31.4°F-0.3°C 30.2°F-1.0°C 95% Calm Calm -- 29.71 in1006.1 mb 0.00 in0.0 mm 0.00 in0.0 mm 0.01 in0.3 mm
05:50 AM 31.4°F-0.3°C 30.2°F-1.0°C 95% Calm Calm -- 29.71 in1006.1 mb 0.00 in0.0 mm 0.00 in0.0 mm 0.01 in0.3 mm
05:55 AM 31.4°F-0.3°C 30.2°F-1.0°C 95% Calm Calm -- 29.72 in1006.4 mb 0.00 in0.0 mm 0.00 in0.0 mm 0.01 in0.3 mm
06:00 AM 31.3°F-0.4°C 30.0°F-1.1°C 95% Calm Calm -- 29.73 in1006.8 mb 0.00 in0.0 mm 0.00 in0.0 mm 0.01 in0.3 mm
06:05 AM 31.0°F-0.6°C 29.7°F-1.3°C 95% Calm Calm -- 29.73 in1006.8 mb 0.00 in0.0 mm 0.00 in0.0 mm 0.01 in0.3 mm
06:10 AM 30.9°F-0.6°C 29.7°F-1.3°C 95% Calm Calm -- 29.74 in1007.1 mb 0.00 in0.0 mm 0.00 in0.0 mm 0.01 in0.3 mm
06:15 AM 30.8°F-0.7°C 29.5°F-1.4°C 95% Calm Calm -- 29.75 in1007.5 mb 0.00 in0.0 mm 0.00 in0.0 mm 0.01 in0.3 mm
06:20 AM 30.7°F-0.7°C 29.5°F-1.4°C 95% Calm Calm -- 29.74 in1007.1 mb 0.00 in0.0 mm 0.00 in0.0 mm 0.01 in0.3 mm
06:25 AM 30.5°F-0.8°C 29.3°F-1.5°C 95% Calm Calm -- 29.74 in1007.1 mb 0.00 in0.0 mm 0.00 in0.0 mm 0.01 in0.3 mm
06:30 AM 30.4°F-0.9°C 29.1°F-1.6°C 95% Calm Calm -- 29.74 in1007.1 mb 0.00 in0.0 mm 0.00 in0.0 mm 0.01 in0.3 mm
06:35 AM 30.2°F-1.0°C 28.9°F-1.7°C 95% Calm Calm -- 29.74 in1007.1 mb 0.00 in0.0 mm 0.00 in0.0 mm 0.01 in0.3 mm
06:40 AM 30.1°F-1.1°C 28.8°F-1.8°C 95% Calm Calm -- 29.75 in1007.5 mb 0.00 in0.0 mm 0.00 in0.0 mm 0.01 in0.3 mm
06:45 AM 30.0°F-1.1°C 28.8°F-1.8°C 95% Calm Calm -- 29.75 in1007.5 mb 0.00 in0.0 mm 0.00 in0.0 mm 0.01 in0.3 mm
06:50 AM 30.0°F-1.1°C 28.8°F-1.8°C 95% Calm Calm -- 29.76 in1007.8 mb 0.00 in0.0 mm 0.00 in0.0 mm 0.01 in0.3 mm
06:55 AM 29.9°F-1.2°C 28.6°F-1.9°C 95% Calm Calm -- 29.76 in1007.8 mb 0.00 in0.0 mm 0.00 in0.0 mm 0.01 in0.3 mm
07:00 AM 29.9°F-1.2°C 28.6°F-1.9°C 95% Calm Calm -- 29.76 in1007.8 mb 0.00 in0.0 mm 0.00 in0.0 mm 0.01 in0.3 mm
07:05 AM 29.8°F-1.2°C 28.6°F-1.9°C 95% Calm Calm -- 29.77 in1008.1 mb 0.00 in0.0 mm 0.00 in0.0 mm 0.01 in0.3 mm
07:10 AM 29.8°F-1.2°C 28.6°F-1.9°C 95% Calm Calm -- 29.77 in1008.1 mb 0.00 in0.0 mm 0.00 in0.0 mm 0.01 in0.3 mm
07:15 AM 29.6°F-1.3°C 28.4°F-2.0°C 95% Calm Calm 1.0 mph1.6 kmh 29.77 in1008.1 mb 0.00 in0.0 mm 0.00 in0.0 mm 0.01 in0.3 mm
07:20 AM 29.6°F-1.3°C 28.4°F-2.0°C 95% Calm Calm -- 29.77 in1008.1 mb 0.00 in0.0 mm 0.00 in0.0 mm 0.01 in0.3 mm
07:25 AM 29.5°F-1.4°C 28.2°F-2.1°C 95% Calm Calm -- 29.77 in1008.1 mb 0.00 in0.0 mm 0.00 in0.0 mm 0.01 in0.3 mm
07:30 AM 29.5°F-1.4°C 28.2°F-2.1°C 95% Calm Calm -- 29.78 in1008.5 mb 0.00 in0.0 mm 0.00 in0.0 mm 0.01 in0.3 mm
07:35 AM 29.4°F-1.4°C 28.2°F-2.1°C 95% Calm Calm -- 29.79 in1008.8 mb 0.00 in0.0 mm 0.00 in0.0 mm 0.01 in0.3 mm
07:40 AM 29.4°F-1.4°C 28.2°F-2.1°C 95% Calm Calm 1.0 mph1.6 kmh 29.79 in1008.8 mb 0.00 in0.0 mm 0.00 in0.0 mm 0.01 in0.3 mm
07:45 AM 29.4°F-1.4°C 28.2°F-2.1°C 95% Calm Calm -- 29.80 in1009.1 mb 0.00 in0.0 mm 0.00 in0.0 mm 0.01 in0.3 mm
07:50 AM 29.3°F-1.5°C 28.0°F-2.2°C 95% Calm Calm -- 29.80 in1009.1 mb 0.00 in0.0 mm 0.00 in0.0 mm 0.01 in0.3 mm
07:55 AM 29.3°F-1.5°C 28.0°F-2.2°C 95% Calm Calm -- 29.80 in1009.1 mb 0.00 in0.0 mm 0.00 in0.0 mm 0.01 in0.3 mm
08:00 AM 29.2°F-1.6°C 27.9°F-2.3°C 95% Calm Calm -- 29.80 in1009.1 mb 0.00 in0.0 mm 0.00 in0.0 mm 0.01 in0.3 mm
08:05 AM 29.2°F-1.6°C 27.9°F-2.3°C 95% Calm Calm 1.0 mph1.6 kmh 29.81 in1009.5 mb 0.00 in0.0 mm 0.00 in0.0 mm 0.01 in0.3 mm
08:10 AM 29.1°F-1.6°C 27.9°F-2.3°C 95% Calm Calm -- 29.81 in1009.5 mb 0.00 in0.0 mm 0.00 in0.0 mm 0.01 in0.3 mm
08:15 AM 29.1°F-1.6°C 27.9°F-2.3°C 95% Calm Calm -- 29.82 in1009.8 mb 0.00 in0.0 mm 0.00 in0.0 mm 0.01 in0.3 mm
08:20 AM 29.1°F-1.6°C 27.9°F-2.3°C 95% Calm Calm -- 29.82 in1009.8 mb 0.00 in0.0 mm 0.00 in0.0 mm 0.01 in0.3 mm
08:25 AM 29.0°F-1.7°C 27.7°F-2.4°C 95% Calm Calm -- 29.82 in1009.8 mb 0.00 in0.0 mm 0.00 in0.0 mm 0.01 in0.3 mm
08:30 AM 29.0°F-1.7°C 27.7°F-2.4°C 95% Calm Calm 2.0 mph3.2 kmh 29.82 in1009.8 mb 0.00 in0.0 mm 0.00 in0.0 mm 0.01 in0.3 mm
08:35 AM 28.9°F-1.7°C 27.7°F-2.4°C 95% Calm Calm -- 29.82 in1009.8 mb 0.00 in0.0 mm 0.00 in0.0 mm 0.01 in0.3 mm
08:40 AM 28.8°F-1.8°C 27.5°F-2.5°C 95% Calm Calm -- 29.83 in1010.2 mb 0.00 in0.0 mm 0.00 in0.0 mm 0.01 in0.3 mm
08:45 AM 28.6°F-1.9°C 27.3°F-2.6°C 95% 1.0 mph W1.6 kmh W -- 29.83 in1010.2 mb 0.00 in0.0 mm 0.00 in0.0 mm 0.01 in0.3 mm
08:50 AM 28.5°F-1.9°C 27.3°F-2.6°C 95% 6.0 mph W9.7 kmh W -- 29.84 in1010.5 mb 0.00 in0.0 mm 0.00 in0.0 mm 0.01 in0.3 mm
08:55 AM 28.5°F-1.9°C 27.3°F-2.6°C 95% Calm Calm 13.0 mph20.9 kmh 29.84 in1010.5 mb 0.00 in0.0 mm 0.00 in0.0 mm 0.01 in0.3 mm
09:00 AM 28.3°F-2.1°C 27.0°F-2.8°C 95% Calm Calm -- 29.84 in1010.5 mb 0.00 in0.0 mm 0.00 in0.0 mm 0.01 in0.3 mm
09:05 AM 28.3°F-2.1°C 27.0°F-2.8°C 95% Calm Calm -- 29.84 in1010.5 mb 0.00 in0.0 mm 0.00 in0.0 mm 0.01 in0.3 mm
09:10 AM 28.2°F-2.1°C 27.0°F-2.8°C 95% Calm Calm -- 29.85 in1010.8 mb 0.00 in0.0 mm 0.00 in0.0 mm 0.01 in0.3 mm
09:15 AM 28.1°F-2.2°C 26.8°F-2.9°C 95% Calm Calm -- 29.85 in1010.8 mb 0.00 in0.0 mm 0.00 in0.0 mm 0.01 in0.3 mm
09:20 AM 28.1°F-2.2°C 26.8°F-2.9°C 95% Calm Calm 7.0 mph11.3 kmh 29.86 in1011.2 mb 0.00 in0.0 mm 0.00 in0.0 mm 0.01 in0.3 mm
09:25 AM 28.1°F-2.2°C 26.8°F-2.9°C 95% 1.0 mph W1.6 kmh W -- 29.86 in1011.2 mb 0.00 in0.0 mm 0.00 in0.0 mm 0.01 in0.3 mm
09:30 AM 28.0°F-2.2°C 26.8°F-2.9°C 95% 15.0 mph W24.1 kmh W -- 29.86 in1011.2 mb 0.00 in0.0 mm 0.00 in0.0 mm 0.01 in0.3 mm
09:35 AM 27.8°F-2.3°C 26.6°F-3.0°C 95% 6.0 mph WSW9.7 kmh WSW -- 29.87 in1011.5 mb 0.00 in0.0 mm 0.00 in0.0 mm 0.01 in0.3 mm
09:40 AM 27.8°F-2.3°C 26.6°F-3.0°C 95% 9.0 mph WNW14.5 kmh WNW -- 29.87 in1011.5 mb 0.00 in0.0 mm 0.00 in0.0 mm 0.01 in0.3 mm
09:45 AM 27.8°F-2.3°C 26.6°F-3.0°C 95% 19.0 mph WSW30.6 kmh WSW 22.0 mph35.4 kmh 29.87 in1011.5 mb 0.00 in0.0 mm 0.00 in0.0 mm 0.01 in0.3 mm
09:50 AM 27.8°F-2.3°C 26.6°F-3.0°C 95% 12.0 mph W19.3 kmh W -- 29.88 in1011.9 mb 0.00 in0.0 mm 0.00 in0.0 mm 0.01 in0.3 mm
09:55 AM 27.8°F-2.3°C 26.6°F-3.0°C 95% 10.0 mph WSW16.1 kmh WSW -- 29.88 in1011.9 mb 0.00 in0.0 mm 0.00 in0.0 mm 0.01 in0.3 mm
10:00 AM 27.8°F-2.3°C 26.6°F-3.0°C 95% 13.0 mph WSW20.9 kmh WSW -- 29.88 in1011.9 mb 0.00 in0.0 mm 0.00 in0.0 mm 0.01 in0.3 mm
10:05 AM 27.8°F-2.3°C 26.6°F-3.0°C 95% 1.0 mph W1.6 kmh W -- 29.89 in1012.2 mb 0.00 in0.0 mm 0.00 in0.0 mm 0.01 in0.3 mm
10:10 AM 27.8°F-2.3°C 26.6°F-3.0°C 95% Calm Calm 23.0 mph37.0 kmh 29.89 in1012.2 mb 0.00 in0.0 mm 0.00 in0.0 mm 0.01 in0.3 mm
10:15 AM 27.7°F-2.4°C 26.4°F-3.1°C 95% Calm Calm -- 29.89 in1012.2 mb 0.00 in0.0 mm 0.00 in0.0 mm 0.01 in0.3 mm
10:20 AM 27.7°F-2.4°C 26.4°F-3.1°C 95% Calm Calm -- 29.89 in1012.2 mb 0.00 in0.0 mm 0.00 in0.0 mm 0.01 in0.3 mm
10:25 AM 27.7°F-2.4°C 26.4°F-3.1°C 95% Calm Calm -- 29.90 in1012.5 mb 0.00 in0.0 mm 0.00 in0.0 mm 0.01 in0.3 mm
10:30 AM 27.7°F-2.4°C 26.4°F-3.1°C 95% Calm Calm -- 29.90 in1012.5 mb 0.00 in0.0 mm 0.00 in0.0 mm 0.01 in0.3 mm
10:35 AM 27.7°F-2.4°C 26.4°F-3.1°C 95% Calm Calm -- 29.90 in1012.5 mb 0.00 in0.0 mm 0.00 in0.0 mm 0.01 in0.3 mm
10:40 AM 27.7°F-2.4°C 26.4°F-3.1°C 95% Calm Calm -- 29.91 in1012.9 mb 0.00 in0.0 mm 0.00 in0.0 mm 0.01 in0.3 mm
10:45 AM 27.7°F-2.4°C 26.4°F-3.1°C 95% Calm Calm -- 29.91 in1012.9 mb 0.00 in0.0 mm 0.00 in0.0 mm 0.01 in0.3 mm
10:50 AM 27.7°F-2.4°C 26.4°F-3.1°C 95% Calm Calm -- 29.91 in1012.9 mb 0.00 in0.0 mm 0.00 in0.0 mm 0.01 in0.3 mm
10:55 AM 27.7°F-2.4°C 26.4°F-3.1°C 95% Calm Calm -- 29.91 in1012.9 mb 0.00 in0.0 mm 0.00 in0.0 mm 0.01 in0.3 mm
11:00 AM 27.7°F-2.4°C 26.4°F-3.1°C 95% Calm Calm -- 29.92 in1013.2 mb 0.00 in0.0 mm 0.00 in0.0 mm 0.01 in0.3 mm
11:05 AM 27.7°F-2.4°C 26.4°F-3.1°C 95% Calm Calm -- 29.92 in1013.2 mb 0.00 in0.0 mm 0.00 in0.0 mm 0.01 in0.3 mm
11:10 AM 27.7°F-2.4°C 26.4°F-3.1°C 95% Calm Calm -- 29.92 in1013.2 mb 0.00 in0.0 mm 0.00 in0.0 mm 0.01 in0.3 mm
11:15 AM 27.7°F-2.4°C 26.2°F-3.2°C 94% Calm Calm -- 29.93 in1013.5 mb 0.00 in0.0 mm 0.00 in0.0 mm 0.01 in0.3 mm
11:20 AM 27.7°F-2.4°C 26.2°F-3.2°C 94% Calm Calm -- 29.93 in1013.5 mb 0.00 in0.0 mm 0.00 in0.0 mm 0.01 in0.3 mm
11:25 AM 27.7°F-2.4°C 26.2°F-3.2°C 94% Calm Calm -- 29.93 in1013.5 mb 0.00 in0.0 mm 0.00 in0.0 mm 0.01 in0.3 mm
11:30 AM 27.7°F-2.4°C 25.9°F-3.4°C 93% Calm Calm -- 29.93 in1013.5 mb 0.00 in0.0 mm 0.00 in0.0 mm 0.01 in0.3 mm
11:35 AM 27.7°F-2.4°C 25.9°F-3.4°C 93% Calm Calm -- 29.93 in1013.5 mb 0.00 in0.0 mm 0.00 in0.0 mm 0.01 in0.3 mm
11:40 AM 27.8°F-2.3°C 26.1°F-3.3°C 93% 9.0 mph WSW14.5 kmh WSW -- 29.93 in1013.5 mb 0.00 in0.0 mm 0.00 in0.0 mm 0.01 in0.3 mm
11:45 AM 27.8°F-2.3°C 25.9°F-3.4°C 92% 21.0 mph W33.8 kmh W -- 29.94 in1013.9 mb 0.00 in0.0 mm 0.00 in0.0 mm 0.01 in0.3 mm
11:50 AM 27.8°F-2.3°C 25.9°F-3.4°C 92% 6.0 mph WSW9.7 kmh WSW 22.0 mph35.4 kmh 29.93 in1013.5 mb 0.00 in0.0 mm 0.00 in0.0 mm 0.01 in0.3 mm
11:55 AM 27.8°F-2.3°C 25.5°F-3.6°C 91% 17.0 mph NW27.4 kmh NW -- 29.94 in1013.9 mb 0.00 in0.0 mm 0.00 in0.0 mm 0.01 in0.3 mm
12:00 PM 27.8°F-2.3°C 25.5°F-3.6°C 91% 11.0 mph WSW17.7 kmh WSW -- 29.94 in1013.9 mb 0.00 in0.0 mm 0.00 in0.0 mm 0.01 in0.3 mm
12:05 PM 27.8°F-2.3°C 25.5°F-3.6°C 91% 11.0 mph W17.7 kmh W -- 29.94 in1013.9 mb 0.00 in0.0 mm 0.00 in0.0 mm 0.01 in0.3 mm
12:10 PM 27.8°F-2.3°C 25.3°F-3.7°C 90% Calm Calm -- 29.94 in1013.9 mb 0.00 in0.0 mm 0.00 in0.0 mm 0.01 in0.3 mm
12:15 PM 27.8°F-2.3°C 25.3°F-3.7°C 90% 10.0 mph W16.1 kmh W 33.0 mph53.1 kmh 29.94 in1013.9 mb 0.00 in0.0 mm 0.00 in0.0 mm 0.01 in0.3 mm
12:20 PM 27.7°F-2.4°C 25.2°F-3.8°C 90% 16.0 mph WSW25.7 kmh WSW -- 29.95 in1014.2 mb 0.00 in0.0 mm 0.00 in0.0 mm 0.01 in0.3 mm
12:25 PM 27.6°F-2.4°C 25.2°F-3.8°C 90% 24.0 mph W38.6 kmh W -- 29.94 in1013.9 mb 0.00 in0.0 mm 0.00 in0.0 mm 0.01 in0.3 mm
12:30 PM 27.4°F-2.6°C 24.8°F-4.0°C 90% 5.0 mph WSW8.0 kmh WSW -- 29.95 in1014.2 mb 0.00 in0.0 mm 0.00 in0.0 mm 0.01 in0.3 mm
12:35 PM 27.3°F-2.6°C 24.4°F-4.2°C 89% 22.0 mph WSW35.4 kmh WSW -- 29.95 in1014.2 mb 0.00 in0.0 mm 0.00 in0.0 mm 0.01 in0.3 mm
12:40 PM 27.2°F-2.7°C 24.3°F-4.3°C 89% 23.0 mph WSW37.0 kmh WSW 30.0 mph48.3 kmh 29.95 in1014.2 mb 0.00 in0.0 mm 0.00 in0.0 mm 0.01 in0.3 mm
12:45 PM 27.3°F-2.6°C 24.4°F-4.2°C 89% 16.0 mph W25.7 kmh W -- 29.95 in1014.2 mb 0.00 in0.0 mm 0.00 in0.0 mm 0.01 in0.3 mm
12:50 PM 27.3°F-2.6°C 24.3°F-4.3°C 88% 7.0 mph W11.3 kmh W -- 29.95 in1014.2 mb 0.00 in0.0 mm 0.00 in0.0 mm 0.01 in0.3 mm
12:55 PM 27.3°F-2.6°C 24.3°F-4.3°C 88% 9.0 mph WSW14.5 kmh WSW -- 29.95 in1014.2 mb 0.00 in0.0 mm 0.00 in0.0 mm 0.01 in0.3 mm
01:00 PM 27.2°F-2.7°C 24.1°F-4.4°C 88% 12.0 mph W19.3 kmh W -- 29.95 in1014.2 mb 0.00 in0.0 mm 0.00 in0.0 mm 0.01 in0.3 mm
01:05 PM 27.2°F-2.7°C 24.1°F-4.4°C 88% 24.0 mph WSW38.6 kmh WSW 28.0 mph45.1 kmh 29.95 in1014.2 mb 0.00 in0.0 mm 0.00 in0.0 mm 0.01 in0.3 mm
01:10 PM 27.2°F-2.7°C 23.7°F-4.6°C 87% 11.0 mph WSW17.7 kmh WSW -- 29.96 in1014.6 mb 0.00 in0.0 mm 0.00 in0.0 mm 0.01 in0.3 mm
01:15 PM 27.2°F-2.7°C 23.7°F-4.6°C 87% 11.0 mph WSW17.7 kmh WSW -- 29.96 in1014.6 mb 0.00 in0.0 mm 0.00 in0.0 mm 0.01 in0.3 mm
01:20 PM 27.3°F-2.6°C 23.9°F-4.5°C 87% 7.0 mph WSW11.3 kmh WSW -- 29.95 in1014.2 mb 0.00 in0.0 mm 0.00 in0.0 mm 0.01 in0.3 mm
01:25 PM 27.3°F-2.6°C 23.9°F-4.5°C 87% 6.0 mph WSW9.7 kmh WSW -- 29.95 in1014.2 mb 0.00 in0.0 mm 0.00 in0.0 mm 0.01 in0.3 mm
01:30 PM 27.2°F-2.7°C 23.7°F-4.6°C 87% 13.0 mph WSW20.9 kmh WSW 28.0 mph45.1 kmh 29.96 in1014.6 mb 0.00 in0.0 mm 0.00 in0.0 mm 0.01 in0.3 mm
01:35 PM 27.2°F-2.7°C 23.5°F-4.7°C 86% 10.0 mph W16.1 kmh W -- 29.96 in1014.6 mb 0.00 in0.0 mm 0.00 in0.0 mm 0.01 in0.3 mm
01:40 PM 27.3°F-2.6°C 23.4°F-4.8°C 85% 21.0 mph W33.8 kmh W -- 29.96 in1014.6 mb 0.00 in0.0 mm 0.00 in0.0 mm 0.01 in0.3 mm
01:45 PM 27.3°F-2.6°C 23.2°F-4.9°C 84% 14.0 mph NW22.5 kmh NW -- 29.96 in1014.6 mb 0.00 in0.0 mm 0.00 in0.0 mm 0.01 in0.3 mm
01:50 PM 27.5°F-2.5°C 23.4°F-4.8°C 84% 10.0 mph WSW16.1 kmh WSW -- 29.96 in1014.6 mb 0.00 in0.0 mm 0.00 in0.0 mm 0.01 in0.3 mm
01:55 PM 27.5°F-2.5°C 23.0°F-5.0°C 83% 13.0 mph WSW20.9 kmh WSW 28.0 mph45.1 kmh 29.96 in1014.6 mb 0.00 in0.0 mm 0.00 in0.0 mm 0.01 in0.3 mm
02:00 PM 27.6°F-2.4°C 23.2°F-4.9°C 83% 17.0 mph WSW27.4 kmh WSW -- 29.96 in1014.6 mb 0.00 in0.0 mm 0.00 in0.0 mm 0.01 in0.3 mm
02:05 PM 27.7°F-2.4°C 23.2°F-4.9°C 83% 13.0 mph WSW20.9 kmh WSW -- 29.96 in1014.6 mb 0.00 in0.0 mm 0.00 in0.0 mm 0.01 in0.3 mm
02:10 PM 27.8°F-2.3°C 23.4°F-4.8°C 83% 11.0 mph WNW17.7 kmh WNW -- 29.95 in1014.2 mb 0.00 in0.0 mm 0.00 in0.0 mm 0.01 in0.3 mm
02:15 PM 28.3°F-2.1°C 23.4°F-4.8°C 82% 8.0 mph WSW12.9 kmh WSW -- 29.95 in1014.2 mb 0.00 in0.0 mm 0.00 in0.0 mm 0.01 in0.3 mm
02:20 PM 28.5°F-1.9°C 23.5°F-4.7°C 81% 13.0 mph WSW20.9 kmh WSW 25.0 mph40.2 kmh 29.95 in1014.2 mb 0.00 in0.0 mm 0.00 in0.0 mm 0.01 in0.3 mm
02:25 PM 28.9°F-1.7°C 23.9°F-4.5°C 81% 11.0 mph W17.7 kmh W -- 29.95 in1014.2 mb 0.00 in0.0 mm 0.00 in0.0 mm 0.01 in0.3 mm
02:30 PM 29.0°F-1.7°C 24.1°F-4.4°C 82% 5.0 mph WSW8.0 kmh WSW -- 29.96 in1014.6 mb 0.00 in0.0 mm 0.00 in0.0 mm 0.01 in0.3 mm
02:35 PM 29.0°F-1.7°C 23.9°F-4.5°C 81% 4.0 mph W6.4 kmh W -- 29.95 in1014.2 mb 0.00 in0.0 mm 0.00 in0.0 mm 0.01 in0.3 mm
02:40 PM 29.6°F-1.3°C 24.6°F-4.1°C 81% 6.0 mph WSW9.7 kmh WSW -- 29.95 in1014.2 mb 0.00 in0.0 mm 0.00 in0.0 mm 0.01 in0.3 mm
02:45 PM 29.7°F-1.3°C 24.6°F-4.1°C 81% 16.0 mph WSW25.7 kmh WSW 27.0 mph43.5 kmh 29.95 in1014.2 mb 0.00 in0.0 mm 0.00 in0.0 mm 0.01 in0.3 mm
02:50 PM 29.7°F-1.3°C 24.3°F-4.3°C 80% 22.0 mph WSW35.4 kmh WSW -- 29.95 in1014.2 mb 0.00 in0.0 mm 0.00 in0.0 mm 0.01 in0.3 mm
02:55 PM 29.8°F-1.2°C 24.1°F-4.4°C 79% 10.0 mph W16.1 kmh W -- 29.96 in1014.6 mb 0.00 in0.0 mm 0.00 in0.0 mm 0.01 in0.3 mm
03:00 PM 30.5°F-0.8°C 24.8°F-4.0°C 79% 13.0 mph SW20.9 kmh SW -- 29.96 in1014.6 mb 0.00 in0.0 mm 0.00 in0.0 mm 0.01 in0.3 mm
03:05 PM 31.4°F-0.3°C 25.7°F-3.5°C 79% 16.0 mph W25.7 kmh W -- 29.96 in1014.6 mb 0.00 in0.0 mm 0.00 in0.0 mm 0.01 in0.3 mm
03:10 PM 31.4°F-0.3°C 25.2°F-3.8°C 77% 13.0 mph W20.9 kmh W 30.0 mph48.3 kmh 29.96 in1014.6 mb 0.00 in0.0 mm 0.00 in0.0 mm 0.01 in0.3 mm
03:15 PM 32.0°F0.0°C 25.9°F-3.4°C 78% 14.0 mph SW22.5 kmh SW -- 29.96 in1014.6 mb 0.00 in0.0 mm 0.00 in0.0 mm 0.01 in0.3 mm
03:20 PM 32.1°F0.1°C 25.2°F-3.8°C 75% 7.0 mph WSW11.3 kmh WSW -- 29.96 in1014.6 mb 0.00 in0.0 mm 0.00 in0.0 mm 0.01 in0.3 mm
03:25 PM 32.0°F0.0°C 24.6°F-4.1°C 74% 16.0 mph WSW25.7 kmh WSW -- 29.96 in1014.6 mb 0.00 in0.0 mm 0.00 in0.0 mm 0.01 in0.3 mm
03:30 PM 32.3°F0.2°C 25.0°F-3.9°C 74% 12.0 mph WSW19.3 kmh WSW -- 29.96 in1014.6 mb 0.00 in0.0 mm 0.00 in0.0 mm 0.01 in0.3 mm
03:35 PM 32.8°F0.4°C 25.3°F-3.7°C 74% 5.0 mph WSW8.0 kmh WSW 25.0 mph40.2 kmh 29.96 in1014.6 mb 0.00 in0.0 mm 0.00 in0.0 mm 0.01 in0.3 mm
03:40 PM 33.0°F0.6°C 25.7°F-3.5°C 74% 13.0 mph W20.9 kmh W -- 29.97 in1014.9 mb 0.00 in0.0 mm 0.00 in0.0 mm 0.01 in0.3 mm
03:45 PM 33.4°F0.8°C 25.0°F-3.9°C 71% 13.0 mph WSW20.9 kmh WSW -- 29.97 in1014.9 mb 0.00 in0.0 mm 0.00 in0.0 mm 0.01 in0.3 mm
03:50 PM 33.3°F0.7°C 25.2°F-3.8°C 72% 14.0 mph WSW22.5 kmh WSW -- 29.97 in1014.9 mb 0.00 in0.0 mm 0.00 in0.0 mm 0.01 in0.3 mm
03:55 PM 33.3°F0.7°C 24.6°F-4.1°C 70% 13.0 mph WSW20.9 kmh WSW -- 29.97 in1014.9 mb 0.00 in0.0 mm 0.00 in0.0 mm 0.01 in0.3 mm
04:00 PM 33.6°F0.9°C 25.2°F-3.8°C 71% 12.0 mph SW19.3 kmh SW 26.0 mph41.8 kmh 29.98 in1015.2 mb 0.00 in0.0 mm 0.00 in0.0 mm 0.01 in0.3 mm
04:05 PM 34.0°F1.1°C 25.2°F-3.8°C 70% 7.0 mph W11.3 kmh W -- 29.98 in1015.2 mb 0.00 in0.0 mm 0.00 in0.0 mm 0.01 in0.3 mm
04:10 PM 34.3°F1.3°C 25.2°F-3.8°C 69% 2.0 mph WNW3.2 kmh WNW -- 29.98 in1015.2 mb 0.00 in0.0 mm 0.00 in0.0 mm 0.01 in0.3 mm
04:15 PM 34.3°F1.3°C 25.0°F-3.9°C 68% 11.0 mph WSW17.7 kmh WSW -- 29.97 in1014.9 mb 0.00 in0.0 mm 0.00 in0.0 mm 0.01 in0.3 mm
04:20 PM 34.4°F1.3°C 25.2°F-3.8°C 69% 12.0 mph WSW19.3 kmh WSW -- 29.97 in1014.9 mb 0.00 in0.0 mm 0.00 in0.0 mm 0.01 in0.3 mm
04:25 PM 34.6°F1.4°C 24.6°F-4.1°C 67% 18.0 mph WSW29.0 kmh WSW 24.0 mph38.6 kmh 29.98 in1015.2 mb 0.00 in0.0 mm 0.00 in0.0 mm 0.01 in0.3 mm
04:30 PM 34.8°F1.6°C 25.3°F-3.7°C 68% 11.0 mph WSW17.7 kmh WSW -- 29.98 in1015.2 mb 0.00 in0.0 mm 0.00 in0.0 mm 0.01 in0.3 mm
04:35 PM 35.1°F1.7°C 25.5°F-3.6°C 68% 20.0 mph W32.2 kmh W -- 29.98 in1015.2 mb 0.00 in0.0 mm 0.00 in0.0 mm 0.01 in0.3 mm
04:40 PM 35.3°F1.8°C 25.7°F-3.5°C 68% 11.0 mph WSW17.7 kmh WSW -- 29.98 in1015.2 mb 0.00 in0.0 mm 0.00 in0.0 mm 0.01 in0.3 mm
04:45 PM 35.6°F2.0°C 26.1°F-3.3°C 68% 12.0 mph SW19.3 kmh SW -- 29.98 in1015.2 mb 0.00 in0.0 mm 0.00 in0.0 mm 0.01 in0.3 mm
04:50 PM 35.9°F2.2°C 25.3°F-3.7°C 65% 15.0 mph W24.1 kmh W 19.0 mph30.6 kmh 29.99 in1015.6 mb 0.00 in0.0 mm 0.00 in0.0 mm 0.01 in0.3 mm
04:55 PM 35.8°F2.1°C 22.5°F-5.3°C 58% 16.0 mph WNW25.7 kmh WNW -- 29.99 in1015.6 mb 0.00 in0.0 mm 0.00 in0.0 mm 0.01 in0.3 mm
05:00 PM 35.7°F2.1°C 22.1°F-5.5°C 57% 13.0 mph WSW20.9 kmh WSW -- 30.00 in1015.9 mb 0.00 in0.0 mm 0.00 in0.0 mm 0.01 in0.3 mm
05:05 PM 35.5°F1.9°C 21.4°F-5.9°C 56% 15.0 mph WNW24.1 kmh WNW -- 30.00 in1015.9 mb 0.00 in0.0 mm 0.00 in0.0 mm 0.01 in0.3 mm
05:10 PM 35.3°F1.8°C 21.2°F-6.0°C 56% 19.0 mph WSW30.6 kmh WSW -- 30.00 in1015.9 mb 0.00 in0.0 mm 0.00 in0.0 mm 0.01 in0.3 mm
05:15 PM 35.0°F1.7°C 21.4°F-5.9°C 57% 13.0 mph WSW20.9 kmh WSW 27.0 mph43.5 kmh 30.00 in1015.9 mb 0.00 in0.0 mm 0.00 in0.0 mm 0.01 in0.3 mm
05:20 PM 34.8°F1.6°C 22.1°F-5.5°C 59% 8.0 mph W12.9 kmh W -- 30.00 in1015.9 mb 0.00 in0.0 mm 0.00 in0.0 mm 0.01 in0.3 mm
05:25 PM 34.6°F1.4°C 22.1°F-5.5°C 60% 11.0 mph W17.7 kmh W -- 30.01 in1016.3 mb 0.00 in0.0 mm 0.00 in0.0 mm 0.01 in0.3 mm
05:30 PM 34.5°F1.4°C 22.5°F-5.3°C 61% 10.0 mph W16.1 kmh W -- 30.01 in1016.3 mb 0.00 in0.0 mm 0.00 in0.0 mm 0.01 in0.3 mm
05:35 PM 34.8°F1.6°C 23.2°F-4.9°C 62% 8.0 mph W12.9 kmh W -- 30.02 in1016.6 mb 0.00 in0.0 mm 0.00 in0.0 mm 0.01 in0.3 mm
05:40 PM 34.9°F1.6°C 22.5°F-5.3°C 60% 18.0 mph W29.0 kmh W 28.0 mph45.1 kmh 30.02 in1016.6 mb 0.00 in0.0 mm 0.00 in0.0 mm 0.01 in0.3 mm
05:45 PM 34.6°F1.4°C 20.1°F-6.6°C 55% 19.0 mph W30.6 kmh W -- 30.02 in1016.6 mb 0.00 in0.0 mm 0.00 in0.0 mm 0.01 in0.3 mm
05:50 PM 34.1°F1.2°C 19.8°F-6.8°C 55% 14.0 mph W22.5 kmh W -- 30.03 in1016.9 mb 0.00 in0.0 mm 0.00 in0.0 mm 0.01 in0.3 mm
05:55 PM 33.7°F0.9°C 20.1°F-6.6°C 57% Calm Calm -- 30.03 in1016.9 mb 0.00 in0.0 mm 0.00 in0.0 mm 0.01 in0.3 mm
06:00 PM 33.4°F0.8°C 19.9°F-6.7°C 57% Calm Calm -- 30.03 in1016.9 mb 0.00 in0.0 mm 0.00 in0.0 mm 0.01 in0.3 mm
06:05 PM 33.1°F0.6°C 19.9°F-6.7°C 58% Calm Calm -- 30.03 in1016.9 mb 0.00 in0.0 mm 0.00 in0.0 mm 0.01 in0.3 mm
06:10 PM 33.0°F0.6°C 20.3°F-6.5°C 59% Calm Calm -- 30.03 in1016.9 mb 0.00 in0.0 mm 0.00 in0.0 mm 0.01 in0.3 mm
06:15 PM 33.0°F0.6°C 21.2°F-6.0°C 61% Calm Calm -- 30.03 in1016.9 mb 0.00 in0.0 mm 0.00 in0.0 mm 0.01 in0.3 mm
06:20 PM 32.8°F0.4°C 21.2°F-6.0°C 62% Calm Calm -- 30.04 in1017.3 mb 0.00 in0.0 mm 0.00 in0.0 mm 0.01 in0.3 mm
06:25 PM 32.7°F0.4°C 21.6°F-5.8°C 63% Calm Calm -- 30.04 in1017.3 mb 0.00 in0.0 mm 0.00 in0.0 mm 0.01 in0.3 mm
06:30 PM 32.6°F0.3°C 21.4°F-5.9°C 63% Calm Calm -- 30.04 in1017.3 mb 0.00 in0.0 mm 0.00 in0.0 mm 0.01 in0.3 mm
06:35 PM 32.6°F0.3°C 21.4°F-5.9°C 63% Calm Calm -- 30.05 in1017.6 mb 0.00 in0.0 mm 0.00 in0.0 mm 0.01 in0.3 mm
06:40 PM 32.5°F0.3°C 21.0°F-6.1°C 62% Calm Calm -- 30.05 in1017.6 mb 0.00 in0.0 mm 0.00 in0.0 mm 0.01 in0.3 mm
06:45 PM 32.2°F0.1°C 19.4°F-7.0°C 59% Calm Calm -- 30.05 in1017.6 mb 0.00 in0.0 mm 0.00 in0.0 mm 0.01 in0.3 mm
06:50 PM 32.0°F0.0°C 19.4°F-7.0°C 59% Calm Calm -- 30.05 in1017.6 mb 0.00 in0.0 mm 0.00 in0.0 mm 0.01 in0.3 mm
06:55 PM 31.7°F-0.2°C 18.5°F-7.5°C 58% Calm Calm -- 30.05 in1017.6 mb 0.00 in0.0 mm 0.00 in0.0 mm 0.01 in0.3 mm
07:00 PM 31.5°F-0.3°C 18.9°F-7.3°C 59% Calm Calm -- 30.05 in1017.6 mb 0.00 in0.0 mm 0.00 in0.0 mm 0.01 in0.3 mm
07:05 PM 31.4°F-0.3°C 19.2°F-7.1°C 60% Calm Calm -- 30.06 in1017.9 mb 0.00 in0.0 mm 0.00 in0.0 mm 0.01 in0.3 mm
07:10 PM 31.4°F-0.3°C 19.6°F-6.9°C 61% Calm Calm -- 30.06 in1017.9 mb 0.00 in0.0 mm 0.00 in0.0 mm 0.01 in0.3 mm
07:15 PM 31.1°F-0.5°C 19.2°F-7.1°C 61% Calm Calm -- 30.06 in1017.9 mb 0.00 in0.0 mm 0.00 in0.0 mm 0.01 in0.3 mm
07:20 PM 30.9°F-0.6°C 19.4°F-7.0°C 62% Calm Calm -- 30.07 in1018.3 mb 0.00 in0.0 mm 0.00 in0.0 mm 0.01 in0.3 mm
07:25 PM 30.8°F-0.7°C 19.6°F-6.9°C 63% Calm Calm -- 30.07 in1018.3 mb 0.00 in0.0 mm 0.00 in0.0 mm 0.01 in0.3 mm
07:30 PM 30.6°F-0.8°C 18.7°F-7.4°C 61% Calm Calm -- 30.07 in1018.3 mb 0.00 in0.0 mm 0.00 in0.0 mm 0.01 in0.3 mm
07:35 PM 30.4°F-0.9°C 18.5°F-7.5°C 61% Calm Calm -- 30.08 in1018.6 mb 0.00 in0.0 mm 0.00 in0.0 mm 0.01 in0.3 mm
07:40 PM 30.2°F-1.0°C 17.6°F-8.0°C 59% Calm Calm -- 30.08 in1018.6 mb 0.00 in0.0 mm 0.00 in0.0 mm 0.01 in0.3 mm
07:45 PM 30.1°F-1.1°C 17.1°F-8.3°C 58% Calm Calm 1.0 mph1.6 kmh 30.09 in1019.0 mb 0.00 in0.0 mm 0.00 in0.0 mm 0.01 in0.3 mm
07:50 PM 30.0°F-1.1°C 17.1°F-8.3°C 58% Calm Calm -- 30.08 in1018.6 mb 0.00 in0.0 mm 0.00 in0.0 mm 0.01 in0.3 mm
07:55 PM 29.9°F-1.2°C 17.2°F-8.2°C 59% Calm Calm -- 30.09 in1019.0 mb 0.00 in0.0 mm 0.00 in0.0 mm 0.01 in0.3 mm
08:00 PM 29.7°F-1.3°C 16.7°F-8.5°C 58% Calm Calm -- 30.09 in1019.0 mb 0.00 in0.0 mm 0.00 in0.0 mm 0.01 in0.3 mm
08:05 PM 29.7°F-1.3°C 17.1°F-8.3°C 59% Calm Calm -- 30.09 in1019.0 mb 0.00 in0.0 mm 0.00 in0.0 mm 0.01 in0.3 mm
08:10 PM 29.6°F-1.3°C 17.4°F-8.1°C 60% Calm Calm -- 30.09 in1019.0 mb 0.00 in0.0 mm 0.00 in0.0 mm 0.01 in0.3 mm
08:15 PM 29.4°F-1.4°C 17.8°F-7.9°C 61% Calm Calm -- 30.09 in1019.0 mb 0.00 in0.0 mm 0.00 in0.0 mm 0.01 in0.3 mm
08:20 PM 29.3°F-1.5°C 17.6°F-8.0°C 61% Calm Calm -- 30.09 in1019.0 mb 0.00 in0.0 mm 0.00 in0.0 mm 0.01 in0.3 mm
08:25 PM 29.2°F-1.6°C 17.8°F-7.9°C 62% Calm Calm -- 30.10 in1019.3 mb 0.00 in0.0 mm 0.00 in0.0 mm 0.01 in0.3 mm
08:30 PM 29.1°F-1.6°C 17.8°F-7.9°C 62% Calm Calm -- 30.09 in1019.0 mb 0.00 in0.0 mm 0.00 in0.0 mm 0.01 in0.3 mm
08:35 PM 29.0°F-1.7°C 17.6°F-8.0°C 62% Calm Calm -- 30.10 in1019.3 mb 0.00 in0.0 mm 0.00 in0.0 mm 0.01 in0.3 mm
08:40 PM 28.9°F-1.7°C 16.9°F-8.4°C 60% Calm Calm -- 30.11 in1019.6 mb 0.00 in0.0 mm 0.00 in0.0 mm 0.01 in0.3 mm
08:45 PM 28.7°F-1.8°C 16.7°F-8.5°C 60% Calm Calm -- 30.10 in1019.3 mb 0.00 in0.0 mm 0.00 in0.0 mm 0.01 in0.3 mm
08:50 PM 28.7°F-1.8°C 16.3°F-8.7°C 59% Calm Calm -- 30.11 in1019.6 mb 0.00 in0.0 mm 0.00 in0.0 mm 0.01 in0.3 mm
08:55 PM 28.6°F-1.9°C 16.2°F-8.8°C 59% Calm Calm -- 30.11 in1019.6 mb 0.00 in0.0 mm 0.00 in0.0 mm 0.01 in0.3 mm
09:00 PM 28.5°F-1.9°C 16.2°F-8.8°C 59% Calm Calm -- 30.11 in1019.6 mb 0.00 in0.0 mm 0.00 in0.0 mm 0.01 in0.3 mm
09:05 PM 28.3°F-2.1°C 16.2°F-8.8°C 60% Calm Calm -- 30.11 in1019.6 mb 0.00 in0.0 mm 0.00 in0.0 mm 0.01 in0.3 mm
09:10 PM 28.2°F-2.1°C 16.5°F-8.6°C 61% Calm Calm -- 30.11 in1019.6 mb 0.00 in0.0 mm 0.00 in0.0 mm 0.01 in0.3 mm
09:15 PM 28.1°F-2.2°C 16.3°F-8.7°C 61% Calm Calm -- 30.11 in1019.6 mb 0.00 in0.0 mm 0.00 in0.0 mm 0.01 in0.3 mm
09:20 PM 27.9°F-2.3°C 16.2°F-8.8°C 61% Calm Calm -- 30.12 in1020.0 mb 0.00 in0.0 mm 0.00 in0.0 mm 0.01 in0.3 mm
09:25 PM 27.8°F-2.3°C 16.5°F-8.6°C 62% Calm Calm -- 30.12 in1020.0 mb 0.00 in0.0 mm 0.00 in0.0 mm 0.01 in0.3 mm
09:30 PM 27.7°F-2.4°C 16.7°F-8.5°C 63% Calm Calm -- 30.11 in1019.6 mb 0.00 in0.0 mm 0.00 in0.0 mm 0.01 in0.3 mm
09:35 PM 27.7°F-2.4°C 16.7°F-8.5°C 63% Calm Calm -- 30.12 in1020.0 mb 0.00 in0.0 mm 0.00 in0.0 mm 0.01 in0.3 mm
09:40 PM 27.7°F-2.4°C 16.7°F-8.5°C 63% 3.0 mph WSW4.8 kmh WSW -- 30.12 in1020.0 mb 0.00 in0.0 mm 0.00 in0.0 mm 0.01 in0.3 mm
09:45 PM 27.7°F-2.4°C 17.1°F-8.3°C 64% Calm Calm -- 30.11 in1019.6 mb 0.00 in0.0 mm 0.00 in0.0 mm 0.01 in0.3 mm
09:50 PM 27.6°F-2.4°C 17.4°F-8.1°C 65% Calm Calm 18.0 mph29.0 kmh 30.12 in1020.0 mb 0.00 in0.0 mm 0.00 in0.0 mm 0.01 in0.3 mm
09:55 PM 27.6°F-2.4°C 17.4°F-8.1°C 65% Calm Calm -- 30.12 in1020.0 mb 0.00 in0.0 mm 0.00 in0.0 mm 0.01 in0.3 mm
10:00 PM 27.5°F-2.5°C 17.2°F-8.2°C 65% Calm Calm -- 30.12 in1020.0 mb 0.00 in0.0 mm 0.00 in0.0 mm 0.01 in0.3 mm
10:05 PM 27.5°F-2.5°C 17.6°F-8.0°C 66% Calm Calm -- 30.13 in1020.3 mb 0.00 in0.0 mm 0.00 in0.0 mm 0.01 in0.3 mm
10:10 PM 27.3°F-2.6°C 17.8°F-7.9°C 67% Calm Calm -- 30.13 in1020.3 mb 0.00 in0.0 mm 0.00 in0.0 mm 0.01 in0.3 mm
10:15 PM 27.1°F-2.7°C 17.6°F-8.0°C 67% Calm Calm -- 30.13 in1020.3 mb 0.00 in0.0 mm 0.00 in0.0 mm 0.01 in0.3 mm
10:20 PM 27.0°F-2.8°C 17.8°F-7.9°C 68% Calm Calm -- 30.13 in1020.3 mb 0.00 in0.0 mm 0.00 in0.0 mm 0.01 in0.3 mm
10:25 PM 27.0°F-2.8°C 17.8°F-7.9°C 68% Calm Calm -- 30.13 in1020.3 mb 0.00 in0.0 mm 0.00 in0.0 mm 0.01 in0.3 mm
10:30 PM 27.1°F-2.7°C 17.6°F-8.0°C 67% Calm Calm -- 30.14 in1020.7 mb 0.00 in0.0 mm 0.00 in0.0 mm 0.01 in0.3 mm
10:35 PM 27.0°F-2.8°C 17.8°F-7.9°C 68% Calm Calm -- 30.14 in1020.7 mb 0.00 in0.0 mm 0.00 in0.0 mm 0.01 in0.3 mm
10:40 PM 27.0°F-2.8°C 17.4°F-8.1°C 67% Calm Calm -- 30.14 in1020.7 mb 0.00 in0.0 mm 0.00 in0.0 mm 0.01 in0.3 mm
10:45 PM 27.0°F-2.8°C 17.4°F-8.1°C 67% Calm Calm -- 30.14 in1020.7 mb 0.00 in0.0 mm 0.00 in0.0 mm 0.01 in0.3 mm
10:50 PM 27.0°F-2.8°C 17.4°F-8.1°C 67% Calm Calm -- 30.14 in1020.7 mb 0.00 in0.0 mm 0.00 in0.0 mm 0.01 in0.3 mm
10:55 PM 26.9°F-2.8°C 17.4°F-8.1°C 67% Calm Calm -- 30.14 in1020.7 mb 0.00 in0.0 mm 0.00 in0.0 mm 0.01 in0.3 mm
11:00 PM 26.9°F-2.8°C 17.4°F-8.1°C 67% Calm Calm -- 30.15 in1021.0 mb 0.00 in0.0 mm 0.00 in0.0 mm 0.01 in0.3 mm
11:05 PM 26.8°F-2.9°C 17.2°F-8.2°C 67% Calm Calm -- 30.15 in1021.0 mb 0.00 in0.0 mm 0.00 in0.0 mm 0.01 in0.3 mm
11:10 PM 26.8°F-2.9°C 17.2°F-8.2°C 67% Calm Calm -- 30.15 in1021.0 mb 0.00 in0.0 mm 0.00 in0.0 mm 0.01 in0.3 mm
11:15 PM 26.7°F-2.9°C 17.6°F-8.0°C 68% Calm Calm -- 30.15 in1021.0 mb 0.00 in0.0 mm 0.00 in0.0 mm 0.01 in0.3 mm
11:20 PM 26.7°F-2.9°C 17.6°F-8.0°C 68% Calm Calm -- 30.15 in1021.0 mb 0.00 in0.0 mm 0.00 in0.0 mm 0.01 in0.3 mm
11:25 PM 26.6°F-3.0°C 17.4°F-8.1°C 68% Calm Calm -- 30.15 in1021.0 mb 0.00 in0.0 mm 0.00 in0.0 mm 0.01 in0.3 mm
11:30 PM 26.4°F-3.1°C 17.6°F-8.0°C 69% Calm Calm -- 30.15 in1021.0 mb 0.00 in0.0 mm 0.00 in0.0 mm 0.01 in0.3 mm
11:35 PM 26.5°F-3.1°C 17.2°F-8.2°C 68% Calm Calm -- 30.15 in1021.0 mb 0.00 in0.0 mm 0.00 in0.0 mm 0.01 in0.3 mm
11:40 PM 26.6°F-3.0°C 17.1°F-8.3°C 67% Calm Calm -- 30.15 in1021.0 mb 0.00 in0.0 mm 0.00 in0.0 mm 0.01 in0.3 mm
11:45 PM 26.6°F-3.0°C 17.1°F-8.3°C 67% Calm Calm -- 30.15 in1021.0 mb 0.00 in0.0 mm 0.00 in0.0 mm 0.01 in0.3 mm
11:50 PM 26.7°F-2.9°C 16.9°F-8.4°C 66% Calm Calm -- 30.15 in1021.0 mb 0.00 in0.0 mm 0.00 in0.0 mm 0.01 in0.3 mm
11:55 PM 26.6°F-3.0°C 16.5°F-8.6°C 65% Calm Calm -- 30.15 in1021.0 mb 0.00 in0.0 mm 0.00 in0.0 mm 0.01 in0.3 mm